Time;durP1;ratioP1;P1;durP2;ratioP2;P2;SDS_P1;SDS_P2;PMS_P1;PMS_P2;Temp;Humidity;BMP_temperature;BMP_pressure;BME280_temperature;BME280_humidity;BME280_pressure;Samples;Min_cycle;Max_cycle;Signal;HPM_P1;HPM_P2
2021/01/30 00:02:37;;;;;;;9.03;8.00;;;4.00;99.90;;;;;;6132887;29;20602;-57
2021/01/30 00:05:40;;;;;;;9.27;7.00;;;3.80;99.90;;;;;;6132826;29;20542;-55
2021/01/30 00:08:48;;;;;;;9.50;7.67;;;3.80;99.90;;;;;;6131859;28;20506;-55
2021/01/30 00:11:54;;;;;;;11.60;7.40;;;3.80;99.90;;;;;;6132675;29;20562;-55
2021/01/30 00:14:56;;;;;;;9.23;7.17;;;3.80;99.90;;;;;;6132748;28;20467;-55
2021/01/30 00:17:59;;;;;;;7.17;6.47;;;3.80;99.90;;;;;;6132419;29;20569;-55
2021/01/30 00:21:01;;;;;;;8.27;6.43;;;3.70;99.90;;;;;;6131706;28;21196;-55
2021/01/30 00:24:05;;;;;;;10.40;7.47;;;3.70;99.90;;;;;;6132402;29;20471;-54
2021/01/30 00:27:07;;;;;;;7.10;6.17;;;3.80;99.90;;;;;;6154352;28;20994;-55
2021/01/30 00:30:12;;;;;;;8.40;7.27;;;3.70;99.90;;;;;;6156006;28;20471;-57
2021/01/30 00:33:15;;;;;;;7.80;6.53;;;3.70;99.90;;;;;;6156056;28;20471;-57
2021/01/30 00:36:17;;;;;;;10.20;7.50;;;3.70;99.90;;;;;;6155985;28;20647;-57
2021/01/30 00:39:20;;;;;;;9.23;6.53;;;3.70;99.90;;;;;;6155500;28;20478;-58
2021/01/30 00:42:24;;;;;;;9.23;6.40;;;3.70;99.90;;;;;;6155397;28;20829;-57
2021/01/30 00:45:29;;;;;;;8.33;6.50;;;3.70;99.90;;;;;;6155507;28;20842;-57
2021/01/30 00:48:31;;;;;;;8.53;7.47;;;3.60;99.90;;;;;;6155313;28;20493;-57
2021/01/30 00:51:34;;;;;;;9.23;8.00;;;3.60;99.90;;;;;;6155319;28;20637;-57
2021/01/30 00:54:37;;;;;;;6.30;5.60;;;3.50;99.90;;;;;;6155078;28;20882;-57
2021/01/30 00:57:39;;;;;;;9.80;7.10;;;3.50;99.90;;;;;;6155139;28;20998;-57
2021/01/30 01:00:42;;;;;;;7.90;6.70;;;3.50;99.90;;;;;;6155085;28;20489;-57
2021/01/30 01:03:44;;;;;;;7.73;6.90;;;3.50;99.90;;;;;;6154922;28;20478;-57
2021/01/30 01:06:47;;;;;;;10.50;7.03;;;3.50;99.90;;;;;;6154582;28;20838;-57
2021/01/30 01:09:50;;;;;;;7.80;7.00;;;3.50;99.90;;;;;;6137844;28;20805;-57
2021/01/30 01:12:52;;;;;;;6.50;5.87;;;3.50;99.90;;;;;;6131050;29;20535;-57
2021/01/30 01:15:54;;;;;;;10.27;7.57;;;3.50;99.90;;;;;;6138558;29;20477;-57
2021/01/30 01:18:57;;;;;;;9.23;7.43;;;3.40;99.90;;;;;;6154471;28;20478;-57
2021/01/30 01:21:59;;;;;;;7.40;6.70;;;3.40;99.90;;;;;;6154448;28;20983;-57
2021/01/30 01:25:06;;;;;;;6.60;6.00;;;3.40;99.90;;;;;;6154349;28;20467;-58
2021/01/30 01:28:08;;;;;;;8.67;7.77;;;3.40;99.90;;;;;;6154687;28;20467;-58
2021/01/30 01:31:12;;;;;;;8.27;7.07;;;3.40;99.90;;;;;;6153911;28;20478;-58
2021/01/30 01:34:15;;;;;;;7.90;7.00;;;3.20;99.90;;;;;;6152442;28;20560;-58
2021/01/30 01:37:17;;;;;;;7.90;7.10;;;3.10;99.90;;;;;;6151840;28;20479;-58
2021/01/30 01:40:23;;;;;;;9.70;6.60;;;3.10;99.90;;;;;;6151948;28;20485;-56
2021/01/30 01:43:27;;;;;;;7.97;7.27;;;3.10;99.90;;;;;;6152328;28;20562;-56
2021/01/30 01:46:36;;;;;;;8.30;6.57;;;3.20;99.90;;;;;;6152543;28;20471;-56
2021/01/30 01:49:40;;;;;;;7.50;6.80;;;3.20;99.90;;;;;;6154093;28;20506;-56
2021/01/30 01:52:43;;;;;;;9.30;6.93;;;3.30;99.90;;;;;;6154634;28;20481;-56
2021/01/30 01:55:49;;;;;;;9.37;8.30;;;3.20;99.90;;;;;;6149832;28;20483;-56
2021/01/30 01:58:56;;;;;;;8.63;7.40;;;3.20;99.90;;;;;;6152413;28;20502;-56
2021/01/30 02:01:59;;;;;;;8.63;7.00;;;3.20;99.90;;;;;;6153621;28;20990;-57
2021/01/30 02:05:06;;;;;;;8.27;6.80;;;3.10;99.90;;;;;;6152604;28;20475;-56
2021/01/30 02:08:13;;;;;;;6.97;6.33;;;3.10;99.90;;;;;;6152743;28;20504;-56
2021/01/30 02:11:17;;;;;;;10.13;8.07;;;3.00;99.90;;;;;;6153680;28;20485;-56
2021/01/30 02:14:19;;;;;;;8.20;7.30;;;3.10;99.90;;;;;;6153523;28;20789;-57
2021/01/30 02:17:33;;;;;;;10.83;7.50;;;3.10;99.90;;;;;;6153897;28;20447;-56
2021/01/30 02:21:07;;;;;;;10.70;8.77;;;3.10;99.90;;;;;;6152334;28;20482;-57
2021/01/30 02:24:53;;;;;;;9.13;7.43;;;3.10;99.90;;;;;;6153358;28;20470;-56
2021/01/30 02:28:10;;;;;;;6.63;6.03;;;3.10;99.90;;;;;;6154028;28;20467;-56
2021/01/30 02:31:37;;;;;;;6.43;5.83;;;3.00;99.90;;;;;;6153241;28;20523;-56
2021/01/30 02:35:07;;;;;;;7.27;5.90;;;3.00;99.90;;;;;;6153580;28;20467;-56
2021/01/30 02:38:16;;;;;;;6.60;6.00;;;3.00;99.90;;;;;;6147843;29;20486;-56
2021/01/30 02:41:23;;;;;;;8.73;6.83;;;2.90;99.90;;;;;;6153109;28;20470;-57
2021/01/30 02:44:27;;;;;;;5.70;5.10;;;2.90;99.90;;;;;;6153036;28;20438;-56
2021/01/30 02:47:34;;;;;;;6.73;5.23;;;2.90;99.90;;;;;;6153361;28;20461;-56
2021/01/30 02:50:45;;;;;;;5.50;5.00;;;2.80;99.90;;;;;;6152868;28;20913;-56
2021/01/30 02:53:52;;;;;;;5.30;4.90;;;2.90;99.90;;;;;;6153240;28;20475;-56
2021/01/30 02:56:56;;;;;;;5.27;4.77;;;2.90;99.90;;;;;;6149214;28;20486;-56
2021/01/30 03:00:03;;;;;;;5.87;5.00;;;2.80;99.90;;;;;;6152842;28;20792;-56
2021/01/30 03:03:05;;;;;;;5.30;4.30;;;2.80;99.90;;;;;;6153781;28;20565;-56
2021/01/30 03:06:16;;;;;;;5.13;4.73;;;2.80;99.90;;;;;;6153114;28;20466;-56
2021/01/30 03:09:27;;;;;;;5.10;4.40;;;2.80;99.90;;;;;;6152656;28;20487;-56
2021/01/30 03:12:40;;;;;;;3.93;3.60;;;2.80;99.90;;;;;;6153211;28;20475;-56
2021/01/30 03:15:48;;;;;;;5.00;4.10;;;2.70;99.90;;;;;;6153105;28;20557;-56
2021/01/30 03:18:53;;;;;;;4.83;4.43;;;2.70;99.90;;;;;;6152710;28;20606;-56
2021/01/30 03:21:59;;;;;;;5.07;4.57;;;2.70;99.90;;;;;;6152612;28;20482;-56
2021/01/30 03:25:04;;;;;;;5.30;4.00;;;2.60;99.90;;;;;;6152756;28;20474;-56
2021/01/30 03:28:06;;;;;;;6.13;4.20;;;2.70;99.90;;;;;;6152655;28;20474;-56
2021/01/30 03:31:09;;;;;;;7.10;4.73;;;2.70;99.90;;;;;;6152499;28;20497;-56
2021/01/30 03:34:12;;;;;;;5.20;4.70;;;2.60;99.90;;;;;;6157289;28;20978;-56
2021/01/30 03:37:15;;;;;;;4.93;3.93;;;2.60;99.90;;;;;;6157347;28;20796;-56
2021/01/30 03:40:20;;;;;;;5.80;4.63;;;2.60;99.90;;;;;;6156986;28;20475;-56
2021/01/30 03:43:22;;;;;;;4.80;4.40;;;2.50;99.90;;;;;;6157093;28;21001;-56
2021/01/30 03:46:24;;;;;;;5.37;4.30;;;2.50;99.90;;;;;;6157482;28;20480;-56
2021/01/30 03:49:27;;;;;;;6.70;4.50;;;2.60;99.90;;;;;;6157037;28;20483;-56
2021/01/30 03:52:29;;;;;;;4.57;4.17;;;2.60;99.90;;;;;;6156983;28;20489;-56
2021/01/30 03:55:32;;;;;;;3.53;3.23;;;2.60;99.90;;;;;;6156744;28;20543;-56
2021/01/30 03:58:36;;;;;;;5.23;4.73;;;2.60;99.90;;;;;;6156678;28;20491;-56
2021/01/30 04:01:39;;;;;;;4.17;3.53;;;2.60;99.90;;;;;;6156743;28;20487;-56
2021/01/30 04:04:43;;;;;;;3.73;3.43;;;2.60;99.90;;;;;;6143723;28;20882;-56
2021/01/30 04:07:47;;;;;;;4.30;3.90;;;2.60;99.90;;;;;;6156670;28;20525;-56
2021/01/30 04:10:51;;;;;;;4.10;3.80;;;2.60;99.90;;;;;;6156259;28;20825;-57
2021/01/30 04:13:53;;;;;;;6.10;4.67;;;2.60;99.90;;;;;;6156443;28;20479;-56
2021/01/30 04:16:56;;;;;;;5.03;4.63;;;2.60;99.90;;;;;;6156359;28;20486;-56
2021/01/30 04:19:58;;;;;;;5.67;5.17;;;2.50;99.90;;;;;;6156282;28;20577;-56
2021/01/30 04:23:01;;;;;;;4.60;4.20;;;2.50;99.90;;;;;;6156088;28;20483;-56
2021/01/30 04:26:04;;;;;;;4.63;4.23;;;2.50;99.90;;;;;;6156011;28;20529;-57
2021/01/30 04:29:06;;;;;;;4.47;4.07;;;2.50;99.90;;;;;;6155929;28;20478;-57
2021/01/30 04:32:10;;;;;;;4.33;3.80;;;2.40;99.90;;;;;;6156316;28;20475;-56
2021/01/30 04:35:14;;;;;;;4.93;4.20;;;2.40;99.90;;;;;;6156451;28;20497;-57
2021/01/30 04:38:17;;;;;;;4.40;3.50;;;2.40;99.90;;;;;;6155281;28;20491;-58
2021/01/30 04:41:34;;;;;;;3.97;3.50;;;2.50;99.90;;;;;;6155577;28;20442;-57
2021/01/30 04:44:44;;;;;;;4.60;3.40;;;2.40;99.90;;;;;;6154822;28;20872;-56
2021/01/30 04:47:51;;;;;;;5.20;4.53;;;2.40;99.90;;;;;;6155728;28;20467;-57
2021/01/30 04:51:00;;;;;;;6.40;5.80;;;2.30;99.90;;;;;;6155941;28;20478;-57
2021/01/30 04:54:20;;;;;;;5.80;5.10;;;2.30;99.90;;;;;;6155506;28;20819;-57
2021/01/30 04:57:51;;;;;;;5.10;3.67;;;2.30;99.90;;;;;;6156073;28;20486;-57
2021/01/30 05:01:07;;;;;;;3.70;3.40;;;2.30;99.90;;;;;;6155368;28;20475;-55
2021/01/30 05:04:15;;;;;;;4.13;3.73;;;2.30;99.90;;;;;;6155735;28;20486;-55
2021/01/30 05:07:23;;;;;;;5.00;3.77;;;2.30;99.90;;;;;;6147528;28;20467;-56
2021/01/30 05:10:32;;;;;;;5.30;3.53;;;2.20;99.90;;;;;;6154940;28;20973;-56
2021/01/30 05:13:39;;;;;;;4.17;3.67;;;2.20;99.90;;;;;;6155410;28;20979;-56
2021/01/30 05:16:50;;;;;;;3.60;3.30;;;2.20;99.90;;;;;;6155859;28;20475;-57
2021/01/30 05:20:01;;;;;;;3.90;3.43;;;2.20;99.90;;;;;;6155087;28;20483;-57
2021/01/30 05:23:05;;;;;;;3.87;3.57;;;2.20;99.90;;;;;;6154995;28;20577;-54
2021/01/30 05:26:11;;;;;;;2.97;2.67;;;2.10;99.90;;;;;;6154800;28;20470;-55
2021/01/30 05:29:20;;;;;;;3.13;2.93;;;2.10;99.90;;;;;;6155326;28;20474;-56
2021/01/30 05:32:34;;;;;;;4.83;4.33;;;2.20;99.90;;;;;;6155173;28;20455;-57
2021/01/30 05:35:45;;;;;;;5.90;4.90;;;2.00;99.90;;;;;;6155006;28;20428;-56
2021/01/30 05:38:58;;;;;;;9.80;5.97;;;2.00;99.90;;;;;;6154471;28;20467;-56
2021/01/30 05:42:11;;;;;;;4.40;3.60;;;2.00;99.90;;;;;;6154720;28;20573;-56
2021/01/30 05:45:27;;;;;;;4.20;3.80;;;2.10;99.90;;;;;;6154152;28;20471;-56
2021/01/30 05:48:34;;;;;;;5.03;3.60;;;2.10;99.90;;;;;;6154488;28;20494;-56
2021/01/30 05:51:42;;;;;;;3.90;3.60;;;2.10;99.90;;;;;;6154512;28;20498;-56
2021/01/30 05:54:45;;;;;;;3.97;3.23;;;2.20;99.90;;;;;;6154069;28;20485;-56
2021/01/30 05:57:47;;;;;;;9.50;5.30;;;2.10;99.90;;;;;;6154346;29;20812;-57
2021/01/30 06:00:51;;;;;;;4.93;4.53;;;2.10;99.90;;;;;;6153754;28;20577;-56
2021/01/30 06:03:59;;;;;;;5.07;4.53;;;2.00;99.90;;;;;;6154081;28;20482;-56
2021/01/30 06:07:01;;;;;;;3.60;3.20;;;2.00;99.90;;;;;;6154044;28;20993;-56
2021/01/30 06:10:27;;;;;;;3.27;3.03;;;2.00;99.90;;;;;;6149366;28;20581;-57
2021/01/30 06:13:31;;;;;;;4.37;3.00;;;2.10;99.90;;;;;;6153719;28;21031;-56
2021/01/30 06:16:44;;;;;;;4.30;3.73;;;2.10;99.90;;;;;;6153900;28;20475;-56
2021/01/30 06:20:01;;;;;;;2.87;2.67;;;2.10;99.90;;;;;;6153888;28;20489;-56
2021/01/30 06:23:09;;;;;;;3.67;3.37;;;2.00;99.90;;;;;;6153299;28;20483;-57
2021/01/30 06:26:21;;;;;;;4.17;3.80;;;2.10;99.90;;;;;;6153289;28;20983;-56
2021/01/30 06:29:32;;;;;;;6.30;5.70;;;2.10;99.90;;;;;;6153302;28;20562;-57
2021/01/30 06:32:39;;;;;;;5.80;5.10;;;2.10;99.90;;;;;;6153775;28;20416;-59
2021/01/30 06:35:42;;;;;;;6.67;6.00;;;2.10;99.90;;;;;;6154017;28;20473;-59
2021/01/30 06:38:48;;;;;;;5.83;4.30;;;2.10;99.90;;;;;;6153025;28;20478;-59
2021/01/30 06:41:55;;;;;;;5.70;4.10;;;2.00;99.90;;;;;;6153486;28;20486;-59
2021/01/30 06:45:04;;;;;;;4.00;3.60;;;2.00;99.90;;;;;;6153303;28;20788;-59
2021/01/30 06:48:22;;;;;;;5.10;4.57;;;2.00;99.90;;;;;;6153342;28;20486;-59
2021/01/30 06:51:30;;;;;;;4.83;4.40;;;2.10;99.90;;;;;;6153289;28;20482;-59
2021/01/30 06:54:33;;;;;;;6.23;5.63;;;2.10;99.90;;;;;;6153641;28;20497;-60
2021/01/30 06:57:38;;;;;;;4.17;3.77;;;2.20;99.90;;;;;;6152756;28;20823;-59
2021/01/30 07:00:40;;;;;;;4.70;3.90;;;2.30;99.90;;;;;;6153137;28;20475;-59
2021/01/30 07:04:03;;;;;;;7.53;4.90;;;2.40;99.90;;;;;;6152859;28;20470;-59
2021/01/30 07:07:13;;;;;;;5.50;5.00;;;2.50;99.90;;;;;;6152876;28;20748;-60
2021/01/30 07:10:25;;;;;;;4.10;3.70;;;2.50;99.90;;;;;;6152671;28;20471;-60
2021/01/30 07:13:48;;;;;;;3.90;3.60;;;2.60;99.90;;;;;;6153001;28;20490;-60
2021/01/30 07:16:56;;;;;;;3.97;3.33;;;2.70;99.90;;;;;;6139708;28;20487;-60
2021/01/30 07:20:05;;;;;;;4.37;3.37;;;2.70;99.90;;;;;;6152283;28;20506;-60
2021/01/30 07:23:14;;;;;;;4.27;3.83;;;2.90;99.90;;;;;;6152196;28;20501;-60
2021/01/30 07:26:26;;;;;;;6.73;4.20;;;3.10;99.90;;;;;;6152481;28;20804;-60
2021/01/30 07:29:44;;;;;;;3.90;3.60;;;3.30;99.90;;;;;;6152642;28;20486;-59
2021/01/30 07:32:53;;;;;;;4.70;4.30;;;3.50;99.90;;;;;;6152943;28;20463;-60
2021/01/30 07:36:02;;;;;;;4.27;3.87;;;3.70;99.90;;;;;;6152922;28;20467;-61
2021/01/30 07:39:23;;;;;;;4.00;3.60;;;3.80;99.90;;;;;;6152568;28;20482;-60
2021/01/30 07:42:34;;;;;;;5.70;3.60;;;4.00;99.90;;;;;;6152413;28;20475;-59
2021/01/30 07:45:43;;;;;;;9.10;4.67;;;4.10;99.90;;;;;;6152335;28;20487;-60
2021/01/30 07:48:52;;;;;;;4.60;3.70;;;4.20;99.90;;;;;;6152450;28;20479;-60
2021/01/30 07:52:02;;;;;;;4.50;4.10;;;4.30;99.90;;;;;;6152185;28;20493;-59
2021/01/30 07:55:08;;;;;;;17.40;12.80;;;4.40;99.90;;;;;;6152131;28;20483;-59
2021/01/30 07:58:26;;;;;;;14.57;10.90;;;4.50;99.90;;;;;;6152395;28;20471;-59
2021/01/30 08:01:48;;;;;;;8.93;6.73;;;4.60;99.90;;;;;;6152307;29;20474;-60
2021/01/30 08:05:11;;;;;;;12.50;6.83;;;4.70;99.90;;;;;;6152449;28;20480;-60
2021/01/30 08:08:25;;;;;;;4.73;4.03;;;4.80;99.90;;;;;;6152872;28;20493;-60
2021/01/30 08:11:31;;;;;;;4.33;3.93;;;4.80;99.90;;;;;;6152077;28;20458;-60
2021/01/30 08:14:45;;;;;;;5.50;4.23;;;4.80;99.90;;;;;;6152255;28;20435;-60
2021/01/30 08:17:58;;;;;;;4.17;3.23;;;4.80;99.90;;;;;;6143933;28;20512;-61
2021/01/30 08:21:08;;;;;;;5.30;4.77;;;4.80;99.90;;;;;;6155402;28;20479;-59
2021/01/30 08:24:21;;;;;;;6.73;6.17;;;4.80;99.90;;;;;;6156444;28;20490;-60
2021/01/30 08:27:31;;;;;;;7.97;5.00;;;4.80;99.90;;;;;;6156311;28;20475;-60
2021/01/30 08:30:43;;;;;;;7.53;5.40;;;4.80;99.90;;;;;;6155828;28;20485;-61
2021/01/30 08:34:02;;;;;;;5.93;5.40;;;4.80;99.90;;;;;;6154859;28;20609;-60
2021/01/30 08:37:36;;;;;;;5.80;5.13;;;4.90;99.90;;;;;;6146322;29;20490;-60
2021/01/30 08:41:00;;;;;;;7.17;6.10;;;5.00;99.90;;;;;;6026328;29;20864;-59
2021/01/30 08:44:02;;;;;;;8.10;6.70;;;5.20;99.90;;;;;;6140782;29;20479;-60
2021/01/30 08:47:07;;;;;;;9.57;7.00;;;5.30;99.90;;;;;;6134543;29;20954;-60
2021/01/30 08:50:12;;;;;;;8.10;6.93;;;5.40;99.90;;;;;;6141210;28;20471;-60
2021/01/30 08:53:17;;;;;;;8.73;7.40;;;5.50;99.90;;;;;;6140779;29;20803;-60
2021/01/30 08:56:49;;;;;;;10.27;5.87;;;5.60;99.90;;;;;;6137456;28;20443;-63
2021/01/30 08:59:54;;;;;;;7.03;6.33;;;5.70;99.90;;;;;;6135194;28;20471;-59
2021/01/30 09:02:57;;;;;;;7.90;7.10;;;5.80;99.90;;;;;;6149211;28;20493;-61
2021/01/30 09:05:59;;;;;;;9.10;6.30;;;5.80;99.90;;;;;;6145767;28;20542;-59
2021/01/30 09:09:05;;;;;;;8.80;7.10;;;6.00;99.90;;;;;;6140306;29;20498;-60
2021/01/30 09:12:07;;;;;;;7.50;6.40;;;6.00;99.90;;;;;;6139104;28;20553;-60
2021/01/30 09:15:10;;;;;;;10.37;6.03;;;6.10;99.90;;;;;;6154823;28;20553;-60
2021/01/30 09:18:18;;;;;;;6.77;6.17;;;6.30;99.90;;;;;;6154597;28;20553;-60
2021/01/30 09:21:29;;;;;;;6.50;4.70;;;6.50;99.90;;;;;;6145539;28;20961;-58
2021/01/30 09:25:05;;;;;;;6.73;4.70;;;6.60;99.90;;;;;;6154377;28;20482;-60
2021/01/30 09:28:15;;;;;;;6.60;5.43;;;7.00;99.90;;;;;;6154563;28;20529;-60
2021/01/30 09:31:19;;;;;;;6.87;6.23;;;7.30;99.90;;;;;;6154031;28;20531;-59
2021/01/30 09:34:22;;;;;;;8.10;5.73;;;7.70;99.90;;;;;;6154244;28;20470;-61
2021/01/30 09:37:34;;;;;;;6.60;6.00;;;8.10;99.90;;;;;;6154079;28;20483;-60
2021/01/30 09:40:36;;;;;;;8.70;7.63;;;8.60;99.70;;;;;;6153804;28;20497;-59
2021/01/30 09:43:40;;;;;;;9.33;8.07;;;9.20;98.90;;;;;;6154195;28;20489;-60
2021/01/30 09:46:48;;;;;;;13.20;8.30;;;9.70;97.60;;;;;;6154160;28;20890;-60
2021/01/30 09:49:57;;;;;;;8.63;7.70;;;10.00;96.40;;;;;;6153577;28;20569;-60
2021/01/30 09:53:04;;;;;;;12.23;8.80;;;10.20;95.60;;;;;;6153780;28;20475;-60
2021/01/30 09:56:10;;;;;;;9.87;7.80;;;10.50;95.30;;;;;;6153922;28;20486;-60
2021/01/30 09:59:14;;;;;;;12.60;8.70;;;10.90;94.60;;;;;;6154207;28;20479;-60
2021/01/30 10:02:20;;;;;;;10.43;7.97;;;11.30;93.90;;;;;;6153681;28;20975;-60
2021/01/30 10:05:23;;;;;;;9.57;8.20;;;11.70;92.60;;;;;;6153923;28;20485;-58
2021/01/30 10:08:29;;;;;;;9.53;8.43;;;12.00;91.90;;;;;;6153880;28;20546;-59
2021/01/30 10:11:36;;;;;;;10.20;9.40;;;12.10;91.00;;;;;;6153873;28;20424;-59
2021/01/30 10:14:40;;;;;;;9.70;8.70;;;12.10;90.70;;;;;;6153365;28;20515;-59
2021/01/30 10:17:44;;;;;;;8.87;7.00;;;12.20;90.60;;;;;;6150506;28;20541;-59
2021/01/30 10:20:49;;;;;;;7.47;6.67;;;13.00;90.60;;;;;;6150682;28;20481;-64
2021/01/30 10:23:53;;;;;;;8.27;7.47;;;13.60;86.30;;;;;;6139305;29;20468;-64
2021/01/30 10:27:10;;;;;;;7.87;7.17;;;13.80;83.50;;;;;;6145307;28;20583;-66
2021/01/30 10:30:16;;;;;;;6.77;6.10;;;13.80;82.40;;;;;;6128726;29;20778;-64
2021/01/30 10:33:20;;;;;;;7.37;6.67;;;13.90;80.70;;;;;;6148705;28;20482;-62
2021/01/30 10:36:23;;;;;;;6.93;6.03;;;13.80;79.50;;;;;;6152768;28;20578;-63
2021/01/30 10:39:27;;;;;;;7.80;7.00;;;14.20;78.20;;;;;;6151137;28;20800;-64
2021/01/30 10:42:33;;;;;;;8.13;7.43;;;14.60;75.80;;;;;;6128423;29;20486;-64
2021/01/30 10:45:39;;;;;;;9.83;8.17;;;14.60;75.00;;;;;;6129301;29;20979;-64
2021/01/30 10:48:43;;;;;;;13.40;9.63;;;14.60;75.10;;;;;;6129192;29;20647;-64
2021/01/30 10:51:45;;;;;;;9.50;8.60;;;14.50;74.10;;;;;;6129442;29;20479;-65
2021/01/30 10:54:48;;;;;;;9.60;8.70;;;14.70;73.90;;;;;;6128952;29;20482;-61
2021/01/30 10:57:51;;;;;;;10.10;9.10;;;14.90;73.30;;;;;;6140872;29;20485;-61
2021/01/30 11:00:58;;;;;;;10.37;8.93;;;15.60;72.10;;;;;;6152936;28;20471;-61
2021/01/30 11:04:04;;;;;;;8.77;7.93;;;17.50;66.50;;;;;;6152556;28;20478;-61
2021/01/30 11:07:06;;;;;;;7.77;5.90;;;21.10;59.20;;;;;;6152790;28;20483;-61
2021/01/30 11:10:20;;;;;;;7.70;6.90;;;24.80;48.50;;;;;;6149388;28;20234;-61
2021/01/30 11:13:29;;;;;;;8.30;7.30;;;28.20;38.10;;;;;;6138683;28;20243;-62
2021/01/30 11:16:40;;;;;;;7.10;6.50;;;31.10;31.40;;;;;;6138756;29;20237;-62
2021/01/30 11:19:43;;;;;;;8.10;7.40;;;32.90;27.20;;;;;;6139654;28;20607;-63
2021/01/30 11:22:50;;;;;;;7.68;6.97;;;34.40;24.80;;;;;;6138909;29;20248;-64
2021/01/30 11:25:53;;;;;;;6.50;6.00;;;35.20;23.70;;;;;;6139872;29;20223;-64
2021/01/30 11:28:57;;;;;;;5.78;5.28;;;36.40;22.60;;;;;;6138045;28;20222;-63
2021/01/30 11:32:00;;;;;;;6.40;5.82;;;37.20;21.50;;;;;;6124463;28;20241;-63
2021/01/30 11:35:05;;;;;;;6.72;6.03;;;37.70;20.70;;;;;;6138385;28;20237;-64
2021/01/30 11:38:12;;;;;;;7.35;6.65;;;37.90;19.50;;;;;;6152153;29;20234;-65
2021/01/30 11:41:14;;;;;;;6.20;5.70;;;38.40;19.50;;;;;;6152421;28;20313;-65
2021/01/30 11:44:16;;;;;;;7.72;5.03;;;38.20;18.60;;;;;;6152343;28;20242;-68
2021/01/30 11:47:19;;;;;;;5.28;4.88;;;38.10;18.80;;;;;;6152248;28;20249;-62
2021/01/30 11:50:23;;;;;;;5.00;4.60;;;37.90;18.60;;;;;;6152307;28;20218;-62
2021/01/30 11:53:29;;;;;;;4.30;3.90;;;37.90;18.50;;;;;;6154355;28;20206;-60
2021/01/30 11:56:32;;;;;;;6.90;5.45;;;38.70;18.40;;;;;;6156632;28;20206;-58
2021/01/30 11:59:34;;;;;;;4.40;4.10;;;39.70;17.70;;;;;;6156667;28;20223;-61
2021/01/30 12:02:39;;;;;;;7.65;4.18;;;40.40;17.40;;;;;;6156602;28;20273;-60
2021/01/30 12:05:45;;;;;;;6.90;4.78;;;40.70;16.90;;;;;;6152509;29;20239;-60
2021/01/30 12:08:47;;;;;;;4.70;4.30;;;41.10;16.30;;;;;;6132481;29;20325;-61
2021/01/30 12:11:49;;;;;;;4.80;4.35;;;40.70;16.30;;;;;;6132835;29;20231;-63
2021/01/30 12:14:51;;;;;;;4.82;4.43;;;40.90;16.20;;;;;;6132424;29;20643;-62
2021/01/30 12:17:54;;;;;;;4.82;4.32;;;41.20;16.10;;;;;;6136070;29;20226;-62
2021/01/30 12:20:57;;;;;;;4.47;4.18;;;41.30;15.60;;;;;;6156324;28;20264;-61
2021/01/30 12:23:59;;;;;;;5.30;4.47;;;41.10;15.90;;;;;;6150649;28;20235;-61
2021/01/30 12:27:02;;;;;;;6.82;4.85;;;40.70;15.90;;;;;;6132138;28;20573;-62
2021/01/30 12:30:06;;;;;;;6.22;4.43;;;40.00;16.10;;;;;;6131389;29;20894;-62
2021/01/30 12:33:08;;;;;;;4.75;4.32;;;39.20;16.50;;;;;;6148549;28;20234;-62
2021/01/30 12:36:12;;;;;;;4.07;3.70;;;39.20;16.30;;;;;;6156063;28;20241;-61
2021/01/30 12:39:15;;;;;;;5.05;4.38;;;38.50;16.60;;;;;;6155901;28;20230;-61
2021/01/30 12:42:17;;;;;;;5.47;4.97;;;37.00;17.10;;;;;;6156066;28;20236;-61
2021/01/30 12:45:19;;;;;;;5.65;4.35;;;35.90;18.00;;;;;;6155542;28;20697;-61
2021/01/30 12:48:22;;;;;;;6.35;5.10;;;35.70;18.20;;;;;;6155594;28;20674;-61
2021/01/30 12:51:27;;;;;;;5.25;4.68;;;35.10;18.40;;;;;;6155710;28;20231;-63
2021/01/30 12:54:30;;;;;;;3.85;3.53;;;34.60;18.50;;;;;;6155580;28;20273;-62
2021/01/30 12:57:32;;;;;;;6.70;3.70;;;33.70;18.60;;;;;;6155587;28;20607;-62
2021/01/30 13:00:34;;;;;;;3.92;3.58;;;32.80;19.50;;;;;;6155118;28;20695;-60
2021/01/30 13:03:40;;;;;;;6.10;4.40;;;33.40;19.10;;;;;;6155163;28;20234;-61
2021/01/30 13:06:43;;;;;;;3.75;3.35;;;34.20;18.40;;;;;;6154512;28;20241;-61
2021/01/30 13:09:45;;;;;;;5.75;3.42;;;33.70;18.50;;;;;;6154813;28;20249;-62
2021/01/30 13:12:49;;;;;;;5.15;3.53;;;33.00;18.70;;;;;;6155406;28;20245;-59
2021/01/30 13:15:53;;;;;;;6.40;3.90;;;31.20;20.00;;;;;;6154886;28;20230;-60
2021/01/30 13:18:56;;;;;;;5.57;3.60;;;29.00;21.40;;;;;;6154658;28;20230;-61
2021/01/30 13:22:01;;;;;;;3.77;3.20;;;26.70;23.00;;;;;;6154581;28;20258;-60
2021/01/30 13:25:07;;;;;;;3.80;3.13;;;25.20;24.20;;;;;;6140901;28;20378;-60
2021/01/30 13:28:10;;;;;;;5.90;3.13;;;23.90;25.00;;;;;;6131025;29;20228;-60
2021/01/30 13:31:12;;;;;;;11.20;4.20;;;22.80;26.60;;;;;;6136370;29;20238;-59
2021/01/30 13:34:15;;;;;;;4.70;4.00;;;21.80;27.70;;;;;;6154434;28;20242;-59
2021/01/30 13:37:18;;;;;;;8.10;4.63;;;20.80;29.20;;;;;;6149914;28;20249;-60
2021/01/30 13:40:20;;;;;;;11.07;4.17;;;20.20;30.50;;;;;;6154098;28;20235;-59
2021/01/30 13:43:23;;;;;;;5.63;4.57;;;19.40;31.60;;;;;;6154184;28;20231;-58
2021/01/30 13:46:27;;;;;;;7.43;4.77;;;18.80;33.10;;;;;;6154346;28;20239;-58
2021/01/30 13:49:29;;;;;;;6.60;4.57;;;18.00;34.80;;;;;;6154040;28;20498;-59
2021/01/30 13:52:32;;;;;;;5.80;4.40;;;17.40;35.50;;;;;;6154085;28;20475;-59
2021/01/30 13:55:35;;;;;;;8.83;3.47;;;16.90;36.50;;;;;;6153816;28;20983;-58
2021/01/30 13:58:38;;;;;;;5.50;3.90;;;16.80;37.00;;;;;;6153466;28;20479;-60
2021/01/30 14:01:42;;;;;;;11.17;4.83;;;16.60;37.00;;;;;;6154299;28;20481;-60
2021/01/30 14:04:44;;;;;;;8.33;4.37;;;16.50;37.50;;;;;;6153943;28;20534;-59
2021/01/30 14:07:48;;;;;;;12.20;4.43;;;16.40;38.20;;;;;;6153655;28;20828;-59
2021/01/30 14:10:50;;;;;;;6.43;4.77;;;16.20;38.50;;;;;;6153317;28;20498;-60
2021/01/30 14:13:52;;;;;;;7.37;4.47;;;16.00;38.90;;;;;;6153639;28;20488;-58
2021/01/30 14:16:56;;;;;;;11.80;4.77;;;15.70;39.60;;;;;;6153311;28;20481;-58
2021/01/30 14:19:59;;;;;;;11.97;4.00;;;15.60;39.20;;;;;;6153558;28;20474;-58
2021/01/30 14:23:04;;;;;;;7.80;4.30;;;15.50;39.90;;;;;;6153143;28;20483;-59
2021/01/30 14:26:07;;;;;;;10.20;4.53;;;15.60;39.50;;;;;;6129544;28;20478;-58
2021/01/30 14:29:09;;;;;;;7.73;4.23;;;15.70;39.30;;;;;;6128942;29;20963;-59
2021/01/30 14:32:11;;;;;;;10.17;3.70;;;15.80;39.60;;;;;;6142820;29;20475;-59
2021/01/30 14:35:16;;;;;;;9.73;6.00;;;15.70;39.60;;;;;;6153003;28;20485;-59
2021/01/30 14:38:19;;;;;;;7.57;5.63;;;15.40;41.30;;;;;;6153058;28;20479;-58
2021/01/30 14:41:22;;;;;;;8.37;5.90;;;15.30;42.20;;;;;;6152848;28;20463;-59
2021/01/30 14:44:25;;;;;;;10.50;5.20;;;15.00;42.50;;;;;;6152913;28;20794;-59
2021/01/30 14:47:27;;;;;;;7.53;5.60;;;14.90;42.90;;;;;;6152652;28;20458;-61
2021/01/30 14:50:30;;;;;;;9.57;6.47;;;14.70;43.70;;;;;;6152933;28;20513;-60
2021/01/30 14:53:40;;;;;;;9.17;5.73;;;14.60;44.40;;;;;;6152909;28;20432;-59
2021/01/30 14:56:42;;;;;;;9.40;6.50;;;14.30;45.40;;;;;;6152964;28;20469;-64
2021/01/30 14:59:45;;;;;;;9.53;5.77;;;14.10;46.60;;;;;;6152702;28;20463;-59
2021/01/30 15:02:50;;;;;;;10.47;5.60;;;13.90;47.20;;;;;;6152833;28;20463;-58
2021/01/30 15:05:53;;;;;;;9.70;4.63;;;13.70;46.90;;;;;;6150670;28;21180;-58
2021/01/30 15:08:56;;;;;;;4.90;3.60;;;13.40;47.30;;;;;;6151719;28;20481;-58
2021/01/30 15:11:58;;;;;;;7.10;4.20;;;13.00;47.10;;;;;;6150845;28;21046;-57
2021/01/30 15:15:03;;;;;;;9.57;4.50;;;12.90;48.10;;;;;;6151762;28;20566;-58
2021/01/30 15:18:06;;;;;;;7.50;3.93;;;12.70;48.20;;;;;;6151405;28;20794;-57
2021/01/30 15:21:08;;;;;;;13.33;7.50;;;12.70;49.00;;;;;;6151794;29;20814;-57
2021/01/30 15:24:12;;;;;;;12.10;6.33;;;12.60;50.60;;;;;;6145384;28;20476;-57
2021/01/30 15:27:15;;;;;;;6.50;5.83;;;12.60;51.10;;;;;;6128622;29;20483;-57
2021/01/30 15:30:19;;;;;;;18.00;8.03;;;12.60;51.50;;;;;;6133596;29;20989;-57
2021/01/30 15:33:22;;;;;;;12.30;7.80;;;12.50;52.50;;;;;;6156570;28;20483;-58
2021/01/30 15:36:24;;;;;;;15.03;8.27;;;12.50;53.00;;;;;;6157712;28;20551;-57
2021/01/30 15:39:27;;;;;;;13.13;7.20;;;12.50;53.00;;;;;;6157167;28;20610;-57
2021/01/30 15:42:30;;;;;;;8.27;5.90;;;12.40;53.20;;;;;;6157004;28;20475;-57
2021/01/30 15:45:32;;;;;;;17.47;7.93;;;12.40;53.60;;;;;;6152811;28;20478;-62
2021/01/30 15:48:35;;;;;;;10.80;8.10;;;12.40;53.90;;;;;;6156786;28;21051;-57
2021/01/30 15:51:41;;;;;;;14.50;9.40;;;12.40;54.50;;;;;;6156937;28;20819;-57
2021/01/30 15:54:44;;;;;;;20.47;9.37;;;12.30;55.20;;;;;;6156614;28;20471;-58
2021/01/30 15:57:47;;;;;;;17.73;10.43;;;12.30;55.50;;;;;;6156618;28;20474;-57
2021/01/30 16:00:49;;;;;;;30.50;15.80;;;12.20;55.90;;;;;;6156843;28;20823;-57
2021/01/30 16:03:52;;;;;;;20.10;10.90;;;12.20;56.10;;;;;;6156518;28;20470;-56
2021/01/30 16:06:54;;;;;;;23.63;9.77;;;12.10;56.20;;;;;;6156737;28;20545;-58
2021/01/30 16:09:57;;;;;;;15.97;9.03;;;12.10;56.20;;;;;;6156385;28;20496;-58
2021/01/30 16:12:59;;;;;;;14.70;8.80;;;12.00;56.80;;;;;;6156273;28;20993;-58
2021/01/30 16:16:02;;;;;;;21.33;10.80;;;11.90;57.20;;;;;;6156276;28;20493;-56